• Join FlightAware (Why Join?)
  • Login
  • US Flag 
01:50PM EDT


 

Airport Tracker/Info


-or-


 

Live Flight TrackerFlight Track Log ✈ GGN7280 ✈ 06-Jul-2013 ✈ CYYZ - KALB

Flight Track Log - Related Links

Times and Time Zones

All times are in EDT time to prevent confusion due to time zone crossing. See the GGN7280 flight status page for this flight to view local times or setup timezone preferences in your user account.

Time Position Orientation Groundspeed Altitude Reporting Facility
EDT Latitude Longitude Course Direction KTS MPH feet Rate Location/Type
09:37AM 43.6333 -79.6167 154° Southeast 160 184 2,100  Level Toronto Center
09:38AM 43.5833 -79.5833 154° Southeast 210 242 2,900 1,020 Climbing Toronto Center
09:39AM 43.5333 -79.5333 144° Southeast 220 253 4,200 1,020 Climbing Toronto Center
09:40AM 43.5167 -79.4500 105° East 230 265 5,000 360 Climbing Toronto Center
09:41AM 43.5000 -79.3500 103° East 250 288 5,000  Level Toronto Center
09:42AM 43.5000 -79.2667 90° East 260 299 5,000 660 Level Toronto Center
09:43AM 43.4833 -79.1667 103° East 240 276 6,400 1,440 Climbing Toronto Center
09:44AM 43.4833 -79.0833 90° East 230 265 7,900 1,500 Climbing Toronto Center
09:45AM 43.4667 -79.0167 109° East 230 265 9,400 1,560 Climbing Toronto Center
09:46AM 43.4500 -78.9167 103° East 230 265 11,100 1,560 Climbing Toronto Center
09:47AM 43.4500 -78.8333 90° East 230 265 12,600 1,440 Climbing Toronto Center
09:48AM 43.4333 -78.7333 103° East 240 276 14,000 1,500 Climbing Toronto Center
09:49AM 43.4333 -78.6500 90° East 250 288 15,600 1,500 Climbing Toronto Center
09:50AM 43.4167 -78.5500 103° East 250 288 17,100 1,380 Climbing Toronto Center
09:51AM 43.3833 -78.4667 119° Southeast 250 288 18,400 1,200 Climbing Toronto Center
09:52AM 43.3833 -78.3667 90° East 250 288 19,600 1,200 Climbing Toronto Center
09:53AM 43.3667 -78.2500 101° East 260 299 20,800 1,140 Climbing Toronto Center
09:54AM 43.3500 -78.1667 105° East 260 299 21,900 960 Climbing Toronto Center
09:55AM 43.3500 -78.0500 90° East 270 311 22,800 720 Climbing Toronto Center
09:56AM 43.3333 -77.9667 105° East 280 322 23,400 660 Climbing Toronto Center
09:57AM 43.3333 -77.8500 90° East 300 345 24,200 780 Climbing Toronto Center
09:58AM 43.3167 -77.7333 101° East 300 345 25,000 360 Climbing Toronto Center
09:59AM 43.3000 -77.6000 100° East 310 357 25,000  Level Toronto Center
10:00AM 43.3000 -77.4833 90° East 320 368 25,000  Level Toronto Center
10:01AM 43.2667 -77.3667 111° Southeast 320 368 25,000  Level Toronto Center
10:02AM 43.2500 -77.2500 101° East 320 368 25,000  Level Toronto Center
10:03AM 43.2333 -77.1333 101° East 310 357 25,000  Level Toronto Center
10:04AM 43.2167 -77.0333 103° East 310 357 25,000 -420 Level Toronto Center
10:05AM 43.2000 -76.8833 99° East 320 368 24,200 -840 Descending Toronto Center
10:06AM 43.2000 -76.7667 90° East 340 391 23,400 -600 Descending Toronto Center
10:07AM 43.1667 -76.6333 109° East 330 380 23,000 -240 Descending Toronto Center
10:08AM 43.1500 -76.5167 101° East 320 368 23,000  Level Toronto Center
10:09AM 43.1333 -76.4167 103° East 310 357 23,000  Level Toronto Center
10:10AM 43.1422 -76.3417 81° East 312 359 23,000 -240 Level Boston Center
10:11AM 43.1272 -76.2297 100° East 307 353 22,600 -840 Descending Boston Center
10:12AM 43.1081 -76.1178 103° East 302 348 21,400 -1,260 Descending Boston Center
10:13AM 43.0867 -76.0025 104° East 301 346 20,100 -1,320 Descending Boston Center
10:14AM 43.0672 -75.8906 103° East 301 346 18,800 -1,200 Descending Boston Center
10:15AM 43.0519 -75.7761 100° East 301 346 17,800 -1,200 Descending Boston Center
10:16AM 43.0361 -75.6672 101° East 301 346 16,400 -1,560 Descending Boston Center
10:17AM 43.0225 -75.5642 100° East 301 346 14,700 -1,740 Descending Boston Center
10:18AM 43.0086 -75.4556 100° East 301 346 13,000 -1,740 Descending Boston Center
10:19AM 42.9906 -75.3525 103° East 290 334 11,300 -1,020 Descending Boston Center
10:20AM 42.9764 -75.2497 101° East 279 321 11,000 -180 Descending Boston Center
10:21AM 42.9581 -75.1439 103° East 279 321 11,000  Level Boston Center
10:22AM 42.9397 -75.0381 103° East 279 321 11,000  Level Boston Center
10:23AM 42.9233 -74.9325 102° East 279 321 11,000  Level Boston Center
10:24AM 42.9047 -74.8239 103° East 279 321 11,000  Level Boston Center
10:24AM 42.8919 -74.7386 102° East 289 333 11,000  Level Boston Center
10:25AM 42.8753 -74.6303 102° East 290 334 11,000  Level Boston Center
10:26AM 42.8606 -74.5247 101° East 293 337 11,000  Level Boston Center
10:27AM 42.8419 -74.4053 102° East 294 338 11,000 -420 Level Boston Center
10:28AM 42.8289 -74.3172 101° East 294 338 10,200 -1,380 Descending Boston Center
10:29AM 42.8119 -74.2061 102° East 278 320 8,400 -1,860 Descending Boston Center
10:30AM 42.7925 -74.1008 104° East 272 313 6,500 -1,620 Descending Boston Center
10:31AM 42.7731 -74.0183 108° East 256 295 5,400 -1,140 Descending Boston Center
10:32AM 42.7236 -73.9692 144° Southeast 218 251 4,400 -1,140 Descending Boston Center
10:33AM 42.6764 -73.9200 143° Southeast 204 235 3,100 -1,080 Descending Boston Center
10:34AM 42.6414 -73.8739 136° Southeast 183 211 2,300 -600 Descending Boston Center
10:35AM 42.6567 -73.8206 69° East 166 191 2,000 -720 Descending Boston Center
10:36AM 42.6986 -73.8044 16° North 137 158 900 -1,140 Descending Boston Center
10:41AM 42.7333 -73.8000 20° North  Level FlightAware Approximate
10:48AM 42.7491 -73.8020 20° North  Level Estimated